Time;durP1;ratioP1;P1;durP2;ratioP2;P2;SDS_P1;SDS_P2;PMS_P1;PMS_P2;Temp;Humidity;BMP_temperature;BMP_pressure;BME280_temperature;BME280_humidity;BME280_pressure;Samples;Min_cycle;Max_cycle;Signal;HPM_P1;HPM_P2
2022/12/28 00:00:16;;;;;;;8.47;5.97;;;;;;;7.27;58.35;98269.97;5067263;28;20217;-72
2022/12/28 00:02:42;;;;;;;7.37;5.57;;;;;;;7.32;57.99;98268.69;5065142;28;20658;-71
2022/12/28 00:05:07;;;;;;;9.67;5.80;;;;;;;7.35;57.45;98265.03;5055098;28;20289;-70
2022/12/28 00:07:33;;;;;;;7.40;5.13;;;;;;;7.38;57.50;98260.44;5054982;28;20175;-71
2022/12/28 00:09:58;;;;;;;6.20;4.40;;;;;;;7.34;57.21;98260.75;5059987;28;20187;-70
2022/12/28 00:12:24;;;;;;;6.93;5.03;;;;;;;7.34;57.31;98251.19;5065074;28;20335;-71
2022/12/28 00:14:49;;;;;;;10.00;5.47;;;;;;;7.28;57.66;98246.38;5062680;28;20202;-71
2022/12/28 00:17:15;;;;;;;6.90;4.87;;;;;;;7.33;57.80;98244.28;5060464;28;20256;-70
2022/12/28 00:19:40;;;;;;;10.57;5.90;;;;;;;7.35;57.89;98247.63;5060642;28;20300;-71
2022/12/28 00:22:06;;;;;;;8.93;5.27;;;;;;;7.32;57.60;98241.78;5060731;28;20171;-71
2022/12/28 00:24:31;;;;;;;6.33;5.40;;;;;;;7.11;57.76;98228.47;5053479;28;20258;-71
2022/12/28 00:26:57;;;;;;;9.87;5.20;;;;;;;7.13;58.23;98232.63;5052523;28;20191;-70
2022/12/28 00:29:22;;;;;;;7.67;4.70;;;;;;;7.15;58.48;98238.56;5067441;28;20273;-70
2022/12/28 00:31:48;;;;;;;12.47;5.50;;;;;;;7.19;57.52;98239.19;5063544;28;20894;-71
2022/12/28 00:34:14;;;;;;;10.03;5.67;;;;;;;7.18;57.44;98230.53;5059223;28;20203;-71
2022/12/28 00:36:39;;;;;;;6.17;5.27;;;;;;;7.21;57.73;98219.06;5053822;28;20443;-70
2022/12/28 00:39:05;;;;;;;7.13;5.00;;;;;;;7.28;57.56;98224.69;5060166;28;20189;-71
2022/12/28 00:41:30;;;;;;;6.83;5.20;;;;;;;7.22;57.99;98224.16;5065042;28;20206;-70
2022/12/28 00:43:55;;;;;;;9.23;4.97;;;;;;;7.31;57.78;98229.69;5061800;28;20259;-70
2022/12/28 00:46:21;;;;;;;7.20;5.50;;;;;;;7.32;57.87;98231.34;5062193;28;20620;-71
2022/12/28 00:48:46;;;;;;;5.70;4.77;;;;;;;7.33;57.70;98217.38;5065055;28;20269;-71
2022/12/28 00:51:18;;;;;;;11.53;5.07;;;;;;;7.32;57.56;98216.53;5059853;28;20636;-70
2022/12/28 00:53:43;;;;;;;5.83;4.57;;;;;;;7.25;58.06;98219.69;5066966;28;20244;-71
2022/12/28 00:56:11;;;;;;;6.80;4.70;;;;;;;7.20;57.77;98210.41;5052256;28;20453;-69
2022/12/28 00:58:37;;;;;;;7.13;5.07;;;;;;;7.15;57.92;98207.28;5058872;28;20182;-72
2022/12/28 01:01:03;;;;;;;7.90;4.37;;;;;;;7.15;58.43;98206.44;5059769;28;20792;-71
2022/12/28 01:03:29;;;;;;;7.27;4.60;;;;;;;7.13;58.24;98210.91;5069138;28;20692;-71
2022/12/28 01:05:54;;;;;;;6.93;4.80;;;;;;;7.09;58.27;98197.25;5056405;28;20442;-71
2022/12/28 01:08:20;;;;;;;6.80;5.17;;;;;;;7.20;57.96;98201.75;5060540;28;20707;-71
2022/12/28 01:10:45;;;;;;;9.40;5.00;;;;;;;7.24;58.01;98195.38;5060595;28;20194;-70
2022/12/28 01:13:11;;;;;;;6.97;4.73;;;;;;;7.21;57.63;98193.00;5064056;28;20187;-70
2022/12/28 01:15:37;;;;;;;6.87;4.70;;;;;;;7.22;57.65;98185.03;5063983;28;20289;-70
2022/12/28 01:18:03;;;;;;;7.43;4.77;;;;;;;7.19;57.75;98187.03;5080789;28;20298;-71
2022/12/28 01:20:28;;;;;;;5.07;4.20;;;;;;;7.17;57.42;98181.94;5069506;28;20421;-72
2022/12/28 01:22:54;;;;;;;7.10;4.43;;;;;;;7.18;58.01;98180.97;5082779;28;20178;-71
2022/12/28 01:25:19;;;;;;;5.70;4.20;;;;;;;7.25;58.02;98185.78;5079883;28;20289;-73
2022/12/28 01:27:45;;;;;;;6.40;3.87;;;;;;;7.16;58.13;98169.84;5061263;28;20174;-72
2022/12/28 01:30:12;;;;;;;6.33;4.30;;;;;;;7.23;58.33;98167.66;5069504;28;20187;-71
2022/12/28 01:32:38;;;;;;;6.00;3.97;;;;;;;7.26;57.96;98169.19;5061126;28;20202;-71
2022/12/28 01:35:04;;;;;;;4.17;3.77;;;;;;;7.25;58.31;98172.75;5059089;28;20445;-71
2022/12/28 01:37:29;;;;;;;4.40;4.00;;;;;;;7.34;58.07;98172.09;5067339;28;20178;-71
2022/12/28 01:39:55;;;;;;;4.50;3.70;;;;;;;7.37;58.11;98162.25;5066918;28;20178;-70
2022/12/28 01:42:20;;;;;;;6.77;4.07;;;;;;;7.32;58.05;98164.38;5064442;28;20183;-70
2022/12/28 01:44:51;;;;;;;8.00;4.03;;;;;;;7.32;58.46;98163.53;5064596;28;20179;-70
2022/12/28 01:47:25;;;;;;;5.10;3.90;;;;;;;7.40;57.95;98152.56;5068233;28;20198;-69
2022/12/28 01:50:07;;;;;;;4.63;3.40;;;;;;;7.35;58.31;98158.09;5059729;28;20528;-70
2022/12/28 01:52:37;;;;;;;8.23;4.03;;;;;;;7.37;58.50;98145.78;5062619;28;20772;-70
2022/12/28 01:55:05;;;;;;;4.40;3.67;;;;;;;7.41;57.68;98144.66;5064262;28;20468;-69
2022/12/28 01:57:35;;;;;;;8.43;3.83;;;;;;;7.46;58.13;98145.13;5061013;28;20420;-71
2022/12/28 02:00:04;;;;;;;6.23;3.10;;;;;;;7.47;58.01;98138.16;5047934;28;20432;-70
2022/12/28 02:02:30;;;;;;;4.20;2.93;;;;;;;7.45;57.91;98137.44;5059030;28;20420;-70
2022/12/28 02:04:57;;;;;;;9.70;3.70;;;;;;;7.44;58.26;98131.38;5048788;28;20484;-69
2022/12/28 02:07:51;;;;;;;4.23;3.60;;;;;;;7.52;57.80;98126.44;5079761;28;20550;-69
2022/12/28 02:10:18;;;;;;;4.53;3.13;;;;;;;7.46;57.66;98119.03;5062837;28;20883;-69
2022/12/28 02:12:43;;;;;;;4.50;3.10;;;;;;;7.57;57.96;98105.25;5083956;28;20425;-70
2022/12/28 02:15:09;;;;;;;4.93;3.37;;;;;;;7.56;57.52;98107.97;5064049;28;20802;-70
2022/12/28 02:17:35;;;;;;;4.27;3.30;;;;;;;7.56;57.77;98110.59;5064969;28;20186;-71
2022/12/28 02:20:01;;;;;;;3.10;2.50;;;;;;;7.53;58.15;98106.41;5066030;28;20279;-70
2022/12/28 02:22:48;;;;;;;4.80;3.03;;;;;;;7.61;58.07;98105.84;5064113;28;20587;-70
2022/12/28 02:25:32;;;;;;;3.00;2.60;;;;;;;7.61;57.94;98105.84;5065084;28;20465;-69
2022/12/28 02:28:43;;;;;;;3.10;2.80;;;;;;;7.65;57.98;98102.06;5054994;28;20959;-70
2022/12/28 02:31:27;;;;;;;3.70;3.00;;;;;;;7.66;57.59;98088.09;4994101;28;20482;-71
2022/12/28 02:33:59;;;;;;;3.97;2.20;;;;;;;7.61;57.36;98095.41;5055298;28;20516;-71
2022/12/28 02:36:29;;;;;;;2.40;2.20;;;;;;;7.62;57.49;98081.41;5064979;28;20436;-70
2022/12/28 02:39:17;;;;;;;3.83;2.50;;;;;;;7.63;57.25;98086.50;5062796;28;20490;-72
2022/12/28 02:41:43;;;;;;;2.97;2.20;;;;;;;7.62;57.69;98081.41;5050196;28;20916;-71
2022/12/28 02:44:08;;;;;;;4.23;1.93;;;;;;;7.60;57.48;98080.69;5061821;28;20784;-69
2022/12/28 02:52:19;;;;;;;4.07;2.47;;;;;;;7.76;57.27;98077.78;5068143;28;20556;-71
2022/12/28 02:57:34;;;;;;;1.83;1.57;;;;;;;7.72;57.69;98060.72;5062488;28;20477;-69
2022/12/28 03:00:13;;;;;;;2.40;1.87;;;;;;;7.77;57.25;98055.97;5068865;28;20412;-68
2022/12/28 03:02:57;;;;;;;3.00;1.77;;;;;;;7.80;57.46;98042.69;5064558;28;20404;-69
2022/12/28 03:08:20;;;;;;;2.80;1.97;;;;;;;7.92;57.29;98030.53;5057111;28;20418;-70
2022/12/28 03:11:03;;;;;;;2.10;1.90;;;;;;;7.99;57.26;98018.66;5062501;28;20465;-68
2022/12/28 03:13:42;;;;;;;1.87;1.60;;;;;;;8.00;56.83;98008.09;5066959;28;20911;-67
2022/12/28 03:16:16;;;;;;;2.77;1.70;;;;;;;8.03;57.16;98021.88;5065960;28;20456;-68
2022/12/28 03:32:56;;;;;;;2.20;1.47;;;;;;;8.20;56.61;98012.75;5056007;28;20949;-68
2022/12/28 03:35:38;;;;;;;2.23;1.50;;;;;;;8.24;57.19;98020.25;5073438;28;20449;-68
2022/12/28 03:38:04;;;;;;;2.07;1.87;;;;;;;8.23;56.50;98015.97;5082787;28;20700;-68
2022/12/28 03:40:46;;;;;;;3.57;1.60;;;;;;;8.28;56.33;98018.22;5061381;28;20448;-69
2022/12/28 03:43:41;;;;;;;1.97;1.60;;;;;;;8.28;56.60;98015.63;5077580;28;20201;-68
2022/12/28 03:46:13;;;;;;;1.87;1.60;;;;;;;8.20;56.44;98008.38;5077530;28;20437;-68
2022/12/28 03:48:39;;;;;;;2.30;1.87;;;;;;;8.25;56.65;98006.22;5066697;28;20545;-69
2022/12/28 03:51:05;;;;;;;1.60;1.50;;;;;;;8.28;56.98;98005.16;5050885;28;20454;-68
2022/12/28 03:53:40;;;;;;;2.13;1.80;;;;;;;8.35;56.53;98003.72;5068763;28;20471;-68
2022/12/28 03:56:07;;;;;;;7.57;1.70;;;;;;;8.40;56.37;98004.22;5052163;28;20343;-68
2022/12/28 03:58:33;;;;;;;1.57;1.47;;;;;;;8.40;55.63;97993.78;5060240;28;20485;-68
2022/12/28 04:00:58;;;;;;;3.50;1.80;;;;;;;8.43;56.23;97987.47;5064117;28;20421;-68
2022/12/28 04:03:24;;;;;;;2.17;1.50;;;;;;;8.41;55.51;97986.75;5066547;28;20187;-68
2022/12/28 04:05:49;;;;;;;1.63;1.50;;;;;;;8.43;55.42;97977.88;5059582;28;20234;-69
2022/12/28 04:08:15;;;;;;;2.73;1.57;;;;;;;8.35;55.68;97988.06;5065535;28;20575;-68
2022/12/28 04:10:40;;;;;;;3.10;1.63;;;;;;;8.41;56.23;97985.00;5056145;28;20774;-68
2022/12/28 04:13:05;;;;;;;1.80;1.40;;;;;;;8.45;55.38;97978.53;5056118;28;20328;-68
2022/12/28 04:15:31;;;;;;;3.03;1.20;;;;;;;8.45;55.79;97981.16;5032164;28;20214;-69
2022/12/28 04:17:59;;;;;;;2.07;1.50;;;;;;;8.51;55.72;97982.50;5058971;28;20720;-68
2022/12/28 04:20:24;;;;;;;1.80;1.23;;;;;;;8.55;55.12;97981.31;5067930;28;20182;-69
2022/12/28 04:22:50;;;;;;;6.10;1.87;;;;;;;8.63;54.93;97975.50;5061088;28;20432;-68
2022/12/28 04:25:15;;;;;;;4.53;1.70;;;;;;;8.60;55.41;97973.09;5051659;28;20289;-66
2022/12/28 04:27:41;;;;;;;1.83;1.40;;;;;;;8.51;55.93;97974.66;5063943;28;20178;-70
2022/12/28 04:30:07;;;;;;;1.77;1.33;;;;;;;8.53;56.15;97962.31;5065444;28;20450;-67
2022/12/28 04:32:32;;;;;;;5.23;1.80;;;;;;;8.57;55.62;97961.13;5064996;28;20698;-69
2022/12/28 04:34:57;;;;;;;3.10;1.30;;;;;;;8.62;55.87;97955.53;5055223;28;20956;-69
2022/12/28 04:37:23;;;;;;;1.60;1.50;;;;;;;8.63;55.36;97951.97;5067352;28;20243;-68
2022/12/28 04:39:48;;;;;;;2.03;1.60;;;;;;;8.61;55.54;97956.47;5062240;28;20183;-69
2022/12/28 04:42:14;;;;;;;2.33;1.47;;;;;;;8.64;56.14;97953.63;5063364;28;20208;-69
2022/12/28 04:44:39;;;;;;;1.30;1.20;;;;;;;8.69;55.49;97953.25;5060473;28;20252;-68
2022/12/28 04:47:05;;;;;;;3.03;1.40;;;;;;;8.66;55.29;97953.50;5049345;28;20262;-69
2022/12/28 04:49:30;;;;;;;5.70;1.53;;;;;;;8.66;55.83;97962.19;5063251;28;20641;-68
2022/12/28 04:51:56;;;;;;;4.83;1.17;;;;;;;8.72;55.49;97961.69;5059342;28;20546;-68
2022/12/28 04:54:21;;;;;;;1.03;0.93;;;;;;;8.76;55.44;97957.03;5065837;28;20190;-68
2022/12/28 04:56:46;;;;;;;1.53;1.30;;;;;;;8.71;55.92;97956.59;5060519;28;20336;-68
2022/12/28 04:59:12;;;;;;;1.50;1.20;;;;;;;8.65;55.47;97957.91;5066422;28;20218;-69
2022/12/28 05:01:37;;;;;;;3.37;1.40;;;;;;;8.69;55.46;97961.09;5065305;28;20182;-69
2022/12/28 05:04:03;;;;;;;1.77;1.27;;;;;;;8.74;56.02;97948.50;5057330;28;20232;-69
2022/12/28 05:06:28;;;;;;;4.13;1.70;;;;;;;8.58;55.65;97952.34;5066083;28;20205;-68
2022/12/28 05:08:55;;;;;;;2.70;1.43;;;;;;;8.58;55.95;97951.50;5061872;28;20244;-68
2022/12/28 05:11:24;;;;;;;3.20;1.57;;;;;;;8.65;55.85;97952.69;5062018;28;20332;-69
2022/12/28 05:13:50;;;;;;;7.37;1.67;;;;;;;8.62;55.55;97949.50;5063612;28;20426;-69
2022/12/28 05:16:17;;;;;;;4.47;1.90;;;;;;;8.60;55.65;97946.97;5052426;28;20461;-68
2022/12/28 05:18:43;;;;;;;2.83;1.50;;;;;;;8.63;55.91;97943.31;5082091;28;20193;-69
2022/12/28 05:21:20;;;;;;;5.80;1.67;;;;;;;8.65;56.01;97938.78;5059602;28;20425;-68
2022/12/28 05:23:46;;;;;;;4.40;1.60;;;;;;;8.69;55.25;97938.44;5046189;28;20174;-68
2022/12/28 05:26:14;;;;;;;2.00;1.40;;;;;;;8.72;55.22;97940.78;5055699;28;20438;-69
2022/12/28 05:28:40;;;;;;;4.60;1.50;;;;;;;8.75;55.27;97935.31;5059999;28;20425;-70
2022/12/28 05:31:09;;;;;;;2.83;1.80;;;;;;;8.78;54.98;97938.63;5059323;28;20461;-69
2022/12/28 05:33:36;;;;;;;2.20;1.50;;;;;;;8.74;55.02;97943.28;5045433;28;20179;-69
2022/12/28 05:36:13;;;;;;;1.97;1.60;;;;;;;8.66;55.03;97938.66;5061368;28;20458;-68
2022/12/28 05:38:38;;;;;;;1.40;1.30;;;;;;;8.68;55.24;97936.75;5048207;28;20424;-68
2022/12/28 05:41:14;;;;;;;8.53;2.00;;;;;;;8.73;55.38;97942.44;5064857;28;20781;-69
2022/12/28 05:43:40;;;;;;;2.60;1.63;;;;;;;8.76;55.33;97941.34;5049825;28;20715;-68
2022/12/28 05:46:13;;;;;;;2.87;1.57;;;;;;;8.78;55.57;97933.41;5051632;28;20449;-69
2022/12/28 05:48:40;;;;;;;2.50;1.17;;;;;;;8.78;55.45;97947.28;5058501;28;20421;-68
2022/12/28 05:51:08;;;;;;;2.87;1.57;;;;;;;8.83;55.45;97933.84;5057455;28;20457;-69
2022/12/28 05:53:34;;;;;;;2.87;1.30;;;;;;;8.75;55.82;97940.53;5049605;28;20417;-68
2022/12/28 05:56:26;;;;;;;2.80;1.53;;;;;;;8.81;55.48;97933.16;5062426;28;20860;-68
2022/12/28 05:58:57;;;;;;;2.60;1.67;;;;;;;8.87;55.05;97930.03;5056450;28;20429;-68
2022/12/28 06:01:24;;;;;;;2.23;1.40;;;;;;;8.89;55.66;97930.75;5060646;28;20511;-69
2022/12/28 06:03:55;;;;;;;2.20;1.53;;;;;;;8.82;55.16;97929.59;5064367;28;20503;-68
2022/12/28 06:06:20;;;;;;;1.83;1.10;;;;;;;8.87;54.98;97917.81;5066747;28;20452;-70
2022/12/28 06:08:47;;;;;;;2.23;1.30;;;;;;;8.94;55.42;97912.09;5066059;28;20437;-70
2022/12/28 06:11:15;;;;;;;2.10;1.50;;;;;;;8.83;55.38;97910.31;5068164;28;20213;-69
2022/12/28 06:13:40;;;;;;;2.60;1.60;;;;;;;8.89;55.43;97894.97;5068370;28;20429;-70
2022/12/28 06:16:18;;;;;;;2.53;1.50;;;;;;;8.81;54.77;97893.97;5051788;28;20463;-69
2022/12/28 06:18:44;;;;;;;2.33;1.40;;;;;;;8.83;55.42;97895.50;5069468;28;20197;-69
2022/12/28 06:21:18;;;;;;;3.67;1.67;;;;;;;8.89;55.53;97888.94;5062880;28;20521;-69
2022/12/28 06:23:44;;;;;;;2.03;1.47;;;;;;;8.83;55.19;97884.19;5069032;28;20417;-71
2022/12/28 06:26:12;;;;;;;2.03;1.57;;;;;;;8.86;55.81;97883.94;5058942;28;20445;-69
2022/12/28 06:28:38;;;;;;;2.87;1.67;;;;;;;8.85;55.08;97885.75;5072609;28;20943;-69
2022/12/28 06:31:05;;;;;;;3.73;1.87;;;;;;;8.86;55.05;97890.03;5065063;28;20538;-70
2022/12/28 06:33:30;;;;;;;5.13;1.83;;;;;;;8.86;55.58;97894.41;5065003;28;20421;-69
2022/12/28 06:35:56;;;;;;;3.60;1.53;;;;;;;8.65;55.57;97902.19;5067022;28;20784;-68
2022/12/28 06:38:21;;;;;;;2.10;1.50;;;;;;;8.74;55.83;97891.81;5064489;28;20183;-69
2022/12/28 06:40:47;;;;;;;2.90;1.30;;;;;;;8.81;55.52;97896.56;5070529;28;20185;-70
2022/12/28 06:43:12;;;;;;;1.43;1.30;;;;;;;8.77;55.72;97890.75;5061435;28;20211;-70
2022/12/28 06:45:38;;;;;;;3.20;1.77;;;;;;;8.83;55.53;97884.19;5060998;28;20292;-70
2022/12/28 06:48:03;;;;;;;2.10;1.53;;;;;;;8.83;55.34;97889.41;5065815;28;20261;-69
2022/12/28 06:50:29;;;;;;;4.30;1.40;;;;;;;8.81;55.74;97886.94;5056251;28;20194;-70
2022/12/28 06:52:54;;;;;;;1.80;1.47;;;;;;;8.84;56.02;97891.06;5064827;28;20184;-69
2022/12/28 06:55:20;;;;;;;2.07;1.50;;;;;;;8.73;55.61;97886.75;5060596;28;20210;-69
2022/12/28 06:57:45;;;;;;;2.40;1.37;;;;;;;8.80;55.67;97890.50;5070745;28;20299;-70
2022/12/28 07:00:11;;;;;;;2.20;1.50;;;;;;;8.83;55.66;97886.78;5063496;28;20266;-69
2022/12/28 07:02:37;;;;;;;4.10;1.80;;;;;;;8.88;55.58;97887.25;5072473;28;20202;-70
2022/12/28 07:05:02;;;;;;;3.30;1.90;;;;;;;8.83;55.81;97881.56;5065217;28;20473;-70
2022/12/28 07:07:27;;;;;;;2.73;1.90;;;;;;;8.80;55.68;97879.22;5067855;28;20209;-74
2022/12/28 07:09:53;;;;;;;6.77;2.80;;;;;;;8.75;55.84;97883.03;5062308;28;20270;-71
2022/12/28 07:12:18;;;;;;;4.20;2.23;;;;;;;8.71;56.04;97886.84;5066230;28;20203;-71
2022/12/28 07:14:44;;;;;;;3.57;2.30;;;;;;;8.68;55.66;97884.50;5066488;28;20677;-71
2022/12/28 07:17:10;;;;;;;3.90;2.27;;;;;;;8.72;55.59;97872.81;5059817;28;21094;-70
2022/12/28 07:19:35;;;;;;;4.53;2.40;;;;;;;8.71;55.98;97875.56;5066464;28;20557;-72
2022/12/28 07:22:02;;;;;;;2.40;2.20;;;;;;;8.73;56.05;97866.66;5062582;28;20516;-72
2022/12/28 07:24:28;;;;;;;3.33;2.50;;;;;;;8.75;55.89;97866.53;5066461;28;20205;-72
2022/12/28 07:26:53;;;;;;;4.80;1.70;;;;;;;8.74;56.08;97860.47;5063242;28;20520;-72
2022/12/28 07:29:19;;;;;;;2.30;1.77;;;;;;;8.73;55.83;97869.25;5065513;28;20624;-72
2022/12/28 07:31:44;;;;;;;5.70;1.73;;;;;;;8.74;56.16;97864.88;5059282;28;20748;-71
2022/12/28 07:34:10;;;;;;;2.13;1.67;;;;;;;8.71;56.09;97855.47;5057169;28;20193;-72
2022/12/28 07:36:35;;;;;;;5.83;1.70;;;;;;;8.69;55.73;97862.63;5055041;28;20281;-71
2022/12/28 07:39:01;;;;;;;1.70;1.50;;;;;;;8.75;56.83;97867.34;5058838;28;20251;-71
2022/12/28 07:41:29;;;;;;;3.97;1.93;;;;;;;8.74;56.05;97863.06;5065954;28;20182;-73
2022/12/28 07:43:54;;;;;;;3.33;1.87;;;;;;;8.81;55.87;97862.59;5054242;28;20190;-71
2022/12/28 07:46:23;;;;;;;2.37;2.00;;;;;;;8.88;55.93;97863.75;5060786;28;20453;-72
2022/12/28 07:48:48;;;;;;;3.50;1.60;;;;;;;8.84;55.75;97863.16;5066319;28;20269;-71
2022/12/28 07:51:19;;;;;;;2.90;1.93;;;;;;;8.87;56.19;97862.06;5063943;28;20465;-72
2022/12/28 07:53:47;;;;;;;2.80;1.73;;;;;;;8.89;55.55;97858.38;5058067;28;20436;-71
2022/12/28 07:56:13;;;;;;;2.13;1.50;;;;;;;8.95;56.01;97862.28;5033938;28;20454;-71
2022/12/28 07:58:38;;;;;;;1.80;1.70;;;;;;;8.99;55.95;97863.69;5066234;28;20416;-72
2022/12/28 08:01:12;;;;;;;2.57;1.80;;;;;;;8.98;55.29;97862.03;5070108;28;20428;-72
2022/12/28 08:03:38;;;;;;;4.63;1.77;;;;;;;9.01;55.50;97856.56;5057169;28;20174;-70
2022/12/28 08:06:09;;;;;;;2.67;1.60;;;;;;;9.03;55.57;97857.25;5036278;28;20450;-69
2022/12/28 08:08:36;;;;;;;2.07;1.90;;;;;;;8.98;55.49;97861.22;5055699;28;21069;-71
2022/12/28 08:11:07;;;;;;;3.60;2.03;;;;;;;8.94;55.71;97855.41;5052729;28;20458;-74
2022/12/28 08:13:34;;;;;;;2.20;1.63;;;;;;;8.94;55.67;97858.03;5049364;28;20418;-73
2022/12/28 08:15:59;;;;;;;3.17;1.90;;;;;;;8.85;55.33;97857.00;5041588;28;20964;-73
2022/12/28 08:18:25;;;;;;;4.70;2.07;;;;;;;8.95;55.29;97843.97;5051852;28;20436;-73
2022/12/28 08:20:51;;;;;;;4.30;2.13;;;;;;;8.93;55.78;97840.69;5048368;28;20172;-73
2022/12/28 08:23:16;;;;;;;2.10;1.80;;;;;;;9.02;55.58;97844.28;5046304;28;20433;-72
2022/12/28 08:25:42;;;;;;;4.83;2.17;;;;;;;9.05;55.46;97842.28;5048948;28;20203;-71
2022/12/28 08:28:07;;;;;;;2.27;2.07;;;;;;;9.09;55.69;97849.84;5043334;28;20226;-70
2022/12/28 08:30:33;;;;;;;3.60;2.63;;;;;;;9.10;55.22;97844.50;5052004;28;20200;-71
2022/12/28 08:32:59;;;;;;;5.40;2.30;;;;;;;9.10;55.03;97848.88;5048270;28;20209;-73
2022/12/28 08:35:25;;;;;;;3.77;2.43;;;;;;;9.14;55.28;97845.06;5036889;28;20525;-73
2022/12/28 08:37:53;;;;;;;4.60;3.03;;;;;;;9.18;55.20;97833.41;5046298;28;20191;-71
2022/12/28 08:40:19;;;;;;;4.03;2.43;;;;;;;9.13;54.81;97830.34;5049937;28;20197;-72
2022/12/28 08:42:44;;;;;;;2.40;2.20;;;;;;;9.31;55.16;97838.44;5050647;28;20426;-73
2022/12/28 08:45:10;;;;;;;4.10;2.13;;;;;;;9.27;55.53;97839.63;5048538;28;20245;-72
2022/12/28 08:47:36;;;;;;;8.77;2.10;;;;;;;9.33;55.03;97834.72;5052507;28;20182;-72
2022/12/28 08:50:01;;;;;;;4.80;3.40;;;;;;;9.41;54.65;97838.50;5045117;28;20515;-72
2022/12/28 08:52:27;;;;;;;9.37;5.70;;;;;;;9.43;54.87;97833.97;5051531;28;20205;-71
2022/12/28 08:54:52;;;;;;;5.23;4.30;;;;;;;9.50;54.56;97829.84;5040571;28;20263;-70
2022/12/28 08:57:18;;;;;;;5.33;3.90;;;;;;;9.51;54.76;97815.81;5052860;28;20221;-72
2022/12/28 08:59:43;;;;;;;4.50;3.17;;;;;;;9.52;54.38;97822.72;5048016;28;20271;-71
2022/12/28 09:02:11;;;;;;;5.80;3.60;;;;;;;9.52;54.47;97822.72;5051389;28;20198;-71
2022/12/28 09:04:37;;;;;;;6.17;3.37;;;;;;;9.63;54.52;97819.19;5049480;28;20183;-71
2022/12/28 09:07:02;;;;;;;5.27;2.10;;;;;;;9.72;54.26;97833.25;5046371;28;20492;-71
2022/12/28 09:09:28;;;;;;;2.80;2.00;;;;;;;9.89;53.06;97822.16;5043668;28;20214;-71
2022/12/28 09:11:53;;;;;;;3.00;1.67;;;;;;;10.08;52.83;97825.81;5047061;28;20294;-72
2022/12/28 09:14:19;;;;;;;2.03;1.60;;;;;;;10.11;52.70;97823.75;5047030;28;20651;-72
2022/12/28 09:16:44;;;;;;;4.33;1.97;;;;;;;10.24;52.39;97812.19;5046777;28;20286;-71
2022/12/28 09:19:13;;;;;;;2.53;1.37;;;;;;;10.36;52.32;97815.50;5055578;28;20195;-71
2022/12/28 09:21:39;;;;;;;1.93;1.30;;;;;;;10.59;51.84;97818.75;5052925;28;20526;-72
2022/12/28 09:24:04;;;;;;;4.73;2.77;;;;;;;10.72;51.60;97816.69;5050444;28;20417;-72
2022/12/28 09:26:32;;;;;;;4.30;2.20;;;;;;;10.80;51.46;97813.38;5049086;28;20213;-72
2022/12/28 09:29:00;;;;;;;4.00;2.53;;;;;;;10.74;51.07;97814.75;5048624;28;20186;-72
2022/12/28 09:31:28;;;;;;;4.43;2.30;;;;;;;10.81;50.87;97812.41;5055333;28;20489;-71
2022/12/28 09:33:59;;;;;;;3.77;2.20;;;;;;;10.91;50.74;97805.34;5047456;28;20862;-71
2022/12/28 09:36:33;;;;;;;3.33;3.03;;;;;;;11.04;50.88;97805.06;5044284;28;20453;-71
2022/12/28 09:39:05;;;;;;;4.57;2.40;;;;;;;10.89;50.59;97798.59;5048733;28;20837;-70
2022/12/28 09:41:40;;;;;;;7.23;3.50;;;;;;;10.92;50.50;97800.94;5056626;28;20933;-71
2022/12/28 09:44:13;;;;;;;4.93;2.20;;;;;;;11.11;50.32;97801.88;5049872;28;20458;-74
2022/12/28 09:47:01;;;;;;;1.50;1.30;;;;;;;11.44;49.76;97797.09;5054538;28;20437;-72
2022/12/28 09:50:05;;;;;;;4.70;2.00;;;;;;;11.60;49.63;97789.44;5020261;28;20482;-71
2022/12/28 09:52:36;;;;;;;1.80;1.47;;;;;;;11.44;49.28;97795.31;5042701;28;20561;-71
2022/12/28 09:55:20;;;;;;;4.00;2.00;;;;;;;11.50;49.46;97783.41;5055468;28;20433;-71
2022/12/28 09:57:50;;;;;;;3.67;2.47;;;;;;;11.56;49.02;97788.06;5066071;28;20425;-72
2022/12/28 10:00:21;;;;;;;4.90;1.63;;;;;;;11.69;49.10;97787.75;5061863;28;20448;-70
2022/12/28 10:02:53;;;;;;;2.97;1.43;;;;;;;11.55;48.88;97786.41;5068400;28;20762;-70
2022/12/28 10:05:20;;;;;;;2.40;1.67;;;;;;;11.76;48.75;97782.75;5050288;28;20807;-73
2022/12/28 10:07:45;;;;;;;2.70;1.40;;;;;;;12.13;48.40;97780.06;5053845;28;20429;-71
2022/12/28 10:10:18;;;;;;;1.57;1.23;;;;;;;12.25;47.79;97775.44;5054374;28;20425;-70
2022/12/28 10:12:44;;;;;;;8.70;4.60;;;;;;;12.29;47.09;97773.31;5050156;28;20221;-70
2022/12/28 10:15:13;;;;;;;6.00;2.70;;;;;;;12.19;47.03;97768.13;5048904;28;20464;-71
2022/12/28 10:17:38;;;;;;;3.83;1.73;;;;;;;12.39;47.14;97773.25;5053624;28;20433;-71
2022/12/28 10:20:06;;;;;;;4.00;1.70;;;;;;;12.41;49.30;97772.13;5076690;28;20810;-71
2022/12/28 10:22:41;;;;;;;3.33;1.90;;;;;;;12.74;49.88;97764.50;5059844;28;20178;-71
2022/12/28 10:25:15;;;;;;;8.03;1.50;;;;;;;13.12;49.57;97758.19;5066165;28;21127;-71
2022/12/28 10:27:42;;;;;;;2.60;1.37;;;;;;;13.09;46.31;97758.53;5058549;28;20427;-72
2022/12/28 10:30:15;;;;;;;3.00;1.30;;;;;;;13.15;45.96;97747.38;5055390;28;20417;-71
2022/12/28 10:32:49;;;;;;;2.97;1.20;;;;;;;13.28;45.28;97745.13;5053161;28;20617;-71
2022/12/28 10:35:28;;;;;;;2.27;1.30;;;;;;;13.70;44.93;97745.38;5036882;28;20468;-71
2022/12/28 10:38:01;;;;;;;3.03;1.30;;;;;;;14.04;44.02;97741.84;5056147;28;20430;-71
2022/12/28 10:40:30;;;;;;;1.47;1.27;;;;;;;14.85;43.36;97734.16;5064623;28;20911;-71
2022/12/28 10:42:56;;;;;;;3.80;1.03;;;;;;;15.33;41.78;97729.78;5062892;28;20422;-72
2022/12/28 10:45:45;;;;;;;3.47;1.30;;;;;;;15.37;40.82;97725.00;5057193;28;20972;-71
2022/12/28 10:48:17;;;;;;;4.97;1.20;;;;;;;15.39;40.81;97720.34;5057106;28;20434;-70
2022/12/28 10:50:51;;;;;;;1.47;1.10;;;;;;;15.09;41.43;97719.28;5055782;28;20905;-71
2022/12/28 10:53:31;;;;;;;1.90;1.10;;;;;;;15.08;40.82;97715.84;5055376;28;20437;-71
2022/12/28 10:56:06;;;;;;;3.77;1.27;;;;;;;14.83;41.56;97720.31;5061618;28;20467;-70
2022/12/28 10:58:32;;;;;;;1.93;1.20;;;;;;;14.80;41.54;97713.56;5048577;28;20421;-72
2022/12/28 11:01:03;;;;;;;1.57;1.20;;;;;;;14.70;41.89;97711.09;5046820;28;20413;-71
2022/12/28 11:03:34;;;;;;;1.60;1.10;;;;;;;14.70;41.74;97711.09;5050228;28;20457;-71
2022/12/28 11:06:18;;;;;;;2.63;1.20;;;;;;;15.14;41.45;97712.50;5055563;28;20438;-71
2022/12/28 11:08:58;;;;;;;2.40;1.20;;;;;;;15.24;40.79;97711.50;5048622;28;20466;-72
2022/12/28 11:11:23;;;;;;;1.43;1.00;;;;;;;15.26;40.51;97705.06;5051660;28;21141;-71
2022/12/28 11:13:54;;;;;;;1.27;1.00;;;;;;;15.58;40.11;97691.91;5051470;28;20512;-72
2022/12/28 11:16:20;;;;;;;1.03;0.80;;;;;;;15.65;40.13;97693.69;5032484;28;20279;-71
2022/12/28 11:18:45;;;;;;;1.90;1.30;;;;;;;15.66;39.77;97694.50;5052709;28;20516;-72
2022/12/28 11:21:17;;;;;;;1.20;1.00;;;;;;;15.34;39.76;97685.72;5040374;28;20222;-71
2022/12/28 11:23:43;;;;;;;1.67;1.10;;;;;;;14.68;40.98;97685.88;5050585;28;20553;-71
2022/12/28 11:26:11;;;;;;;2.00;1.20;;;;;;;14.13;42.18;97691.63;5043537;28;20461;-71
2022/12/28 11:28:40;;;;;;;2.80;1.03;;;;;;;14.17;42.18;97678.94;5013037;28;20183;-70
2022/12/28 11:31:06;;;;;;;3.60;1.10;;;;;;;14.16;42.35;97681.75;5047227;28;20479;-70
2022/12/28 11:33:41;;;;;;;4.00;1.30;;;;;;;13.82;43.29;97681.69;5042669;28;20422;-71
2022/12/28 11:36:21;;;;;;;1.30;1.00;;;;;;;13.67;43.55;97676.22;5047740;28;20453;-71
2022/12/28 11:38:49;;;;;;;4.37;1.07;;;;;;;13.74;43.40;97670.28;5028479;28;20441;-72
2022/12/28 11:41:23;;;;;;;1.73;1.13;;;;;;;13.72;43.32;97669.66;5048924;28;20426;-70
2022/12/28 11:43:53;;;;;;;2.40;1.00;;;;;;;13.56;43.50;97668.63;5045821;28;20442;-72
2022/12/28 11:46:19;;;;;;;1.37;1.07;;;;;;;13.52;44.00;97660.22;5051180;28;20968;-70
2022/12/28 11:48:47;;;;;;;2.23;1.00;;;;;;;13.59;43.90;97654.28;5049935;28;20480;-70
2022/12/28 11:51:14;;;;;;;2.90;1.40;;;;;;;13.65;44.21;97657.09;5027183;28;20215;-72
2022/12/28 11:53:43;;;;;;;8.33;1.30;;;;;;;13.54;43.81;97652.16;5042496;28;20783;-71
2022/12/28 11:56:12;;;;;;;1.53;1.07;;;;;;;13.64;44.04;97641.47;5044536;28;20500;-71
2022/12/28 11:58:41;;;;;;;2.13;1.17;;;;;;;13.42;44.08;97650.78;5052520;28;20465;-71
2022/12/28 12:01:32;;;;;;;3.00;1.37;;;;;;;13.56;44.11;97642.28;5047682;28;20947;-71
2022/12/28 12:03:57;;;;;;;1.70;1.33;;;;;;;13.56;44.05;97637.00;5055619;28;20429;-71
2022/12/28 12:06:41;;;;;;;2.17;1.40;;;;;;;13.61;43.87;97634.69;5052586;28;20472;-71
2022/12/28 12:09:28;;;;;;;2.70;1.37;;;;;;;13.70;43.94;97632.91;5048384;28;20277;-70
2022/12/28 12:11:56;;;;;;;1.97;1.30;;;;;;;13.74;44.03;97618.44;5045334;28;20553;-71